Sumava Resorts, Indiana
Current Conditions -  °F | °C
As of 2:55 PM on Saturday 25 Oct 2014 (Local Time) from KRZL Reporting Station
Clear Clear  
Wind Chill: 73°   Ceiling: Unl
Heat Index: 73°   Visibility: 10mi
Dew Point: 39°   Wind: 13mph
Humidity: 29%   Direction: 280°W
Pressure: 29.92"   Gusts: 18mph
Location:  41.17°N, 87.44°W
Report Text: KRZL 251955Z AUTO 28011G16KT 10SM CLR 23/04 A2992 RMK AO2
Loading
Personal Weather Stations






























Interactive Weather Map
Tropical Storm Tracking
New forecast layout! Learn more

10-Day Weather Forecast

Advertisements
Track Severe Weather on mobile